Time;durP1;ratioP1;P1;durP2;ratioP2;P2;SDS_P1;SDS_P2;PMS_P1;PMS_P2;Temp;Humidity;BMP_temperature;BMP_pressure;BME280_temperature;BME280_humidity;BME280_pressure;Samples;Min_cycle;Max_cycle;Signal;HPM_P1;HPM_P2
2023/04/14 00:00:42;;;;;;;2.63;1.50;;;10.10;99.90;;;;;;7387746;19;20138;-79
2023/04/14 00:03:08;;;;;;;6.60;2.10;;;10.00;99.90;;;;;;7385515;19;20541;-76
2023/04/14 00:05:34;;;;;;;4.17;1.93;;;10.10;99.90;;;;;;7383623;19;20163;-76
2023/04/14 00:08:00;;;;;;;6.60;2.00;;;10.00;99.90;;;;;;7387315;19;20178;-75
2023/04/14 00:10:27;;;;;;;3.60;1.53;;;9.90;99.90;;;;;;7385527;19;20146;-77
2023/04/14 00:12:54;;;;;;;5.00;1.63;;;9.90;99.90;;;;;;7383931;19;20146;-77
2023/04/14 00:15:21;;;;;;;2.37;1.53;;;10.00;99.90;;;;;;7384988;19;20158;-76
2023/04/14 00:17:47;;;;;;;3.93;1.53;;;9.70;99.90;;;;;;7388003;19;20174;-77
2023/04/14 00:20:13;;;;;;;6.23;2.07;;;9.90;99.90;;;;;;7384012;19;20147;-77
2023/04/14 00:22:39;;;;;;;4.37;1.90;;;9.60;99.90;;;;;;7386422;19;20158;-77
2023/04/14 00:25:05;;;;;;;3.73;1.40;;;9.40;99.90;;;;;;7386525;19;20155;-76
2023/04/14 00:27:32;;;;;;;3.50;1.70;;;9.20;99.90;;;;;;7394245;19;20135;-76
2023/04/14 00:29:57;;;;;;;4.13;1.63;;;8.90;99.90;;;;;;7392889;19;20141;-76
2023/04/14 00:32:23;;;;;;;3.70;1.60;;;8.90;99.90;;;;;;7390420;19;20146;-77
2023/04/14 00:34:49;;;;;;;8.20;2.53;;;8.70;99.90;;;;;;7392311;19;20146;-77
2023/04/14 00:37:16;;;;;;;2.63;1.73;;;9.10;99.90;;;;;;7392293;19;20143;-76
2023/04/14 00:39:42;;;;;;;4.40;1.53;;;9.30;99.90;;;;;;7391616;19;20239;-77
2023/04/14 00:42:07;;;;;;;2.57;1.50;;;9.60;99.90;;;;;;7388777;19;20624;-78
2023/04/14 00:44:33;;;;;;;4.70;1.80;;;9.20;99.90;;;;;;7394223;19;20150;-76
2023/04/14 00:47:01;;;;;;;2.40;1.50;;;8.90;99.90;;;;;;7392821;19;20167;-76
2023/04/14 00:49:27;;;;;;;3.43;1.47;;;8.90;99.90;;;;;;7393402;19;20231;-77
2023/04/14 00:51:55;;;;;;;5.03;2.30;;;9.10;99.90;;;;;;7392880;19;20209;-76
2023/04/14 00:54:21;;;;;;;5.20;1.60;;;9.10;99.90;;;;;;7391313;19;20139;-76
2023/04/14 00:56:49;;;;;;;2.03;1.40;;;8.80;99.90;;;;;;7392128;19;20189;-76
2023/04/14 00:59:16;;;;;;;3.87;1.67;;;9.00;99.90;;;;;;7391370;19;20619;-78
2023/04/14 01:01:42;;;;;;;7.70;1.53;;;9.10;99.90;;;;;;7391916;19;20246;-83
2023/04/14 01:04:08;;;;;;;2.73;1.50;;;9.20;99.90;;;;;;7393524;19;20131;-84
2023/04/14 01:06:34;;;;;;;5.43;1.93;;;9.40;99.90;;;;;;7393616;19;20174;-83
2023/04/14 01:09:01;;;;;;;4.63;2.20;;;9.50;99.90;;;;;;7393837;19;20130;-84
2023/04/14 01:11:52;;;;;;;3.70;2.33;;;9.60;99.90;;;;;;7390731;19;20161;-83
2023/04/14 01:14:39;;;;;;;4.40;2.10;;;9.70;99.90;;;;;;7391156;19;20146;-83
2023/04/14 01:17:30;;;;;;;4.90;1.67;;;9.00;99.90;;;;;;7394521;19;20147;-84
2023/04/14 01:20:31;;;;;;;3.93;1.90;;;9.10;99.90;;;;;;7394411;19;20143;-83
2023/04/14 01:23:05;;;;;;;4.47;1.80;;;9.00;99.90;;;;;;7390316;19;20206;-83
2023/04/14 01:25:58;;;;;;;4.60;1.93;;;9.10;99.90;;;;;;7392962;19;20131;-83
2023/04/14 01:28:44;;;;;;;4.70;2.10;;;9.20;99.90;;;;;;7391613;19;20147;-83
2023/04/14 01:31:30;;;;;;;2.70;1.50;;;9.30;99.90;;;;;;7386495;19;20158;-83
2023/04/14 01:34:03;;;;;;;3.30;1.60;;;9.10;99.90;;;;;;7388911;19;20156;-83
2023/04/14 01:36:54;;;;;;;1.90;1.70;;;9.10;99.90;;;;;;7389157;19;20169;-83
2023/04/14 01:39:23;;;;;;;3.83;1.93;;;9.30;99.90;;;;;;7392026;19;20154;-83
2023/04/14 01:41:55;;;;;;;4.37;1.83;;;9.40;99.90;;;;;;7388246;19;20226;-83
2023/04/14 01:44:22;;;;;;;5.10;2.20;;;9.50;99.90;;;;;;7391649;19;20143;-82
2023/04/14 01:46:50;;;;;;;4.70;2.03;;;9.30;99.90;;;;;;7392426;19;20167;-82
2023/04/14 01:49:18;;;;;;;2.20;1.63;;;9.30;99.90;;;;;;7393560;19;20484;-82
2023/04/14 01:51:46;;;;;;;7.40;2.17;;;9.20;99.90;;;;;;7390044;19;20138;-82
2023/04/14 01:54:13;;;;;;;8.70;2.00;;;9.20;99.90;;;;;;7389917;19;20514;-83
2023/04/14 01:56:41;;;;;;;3.07;1.90;;;9.20;99.90;;;;;;7391469;19;20502;-81
2023/04/14 01:59:10;;;;;;;3.67;2.03;;;9.10;99.90;;;;;;7393232;19;20552;-82
2023/04/14 02:01:37;;;;;;;4.70;2.20;;;9.10;99.90;;;;;;7393518;19;20138;-81
2023/04/14 02:04:04;;;;;;;6.30;2.00;;;9.20;99.90;;;;;;7393214;19;20147;-84
2023/04/14 02:06:31;;;;;;;4.30;2.43;;;9.00;99.90;;;;;;7392572;19;20722;-83
2023/04/14 02:09:00;;;;;;;5.07;2.60;;;8.80;99.90;;;;;;7389059;19;20143;-83
2023/04/14 02:11:29;;;;;;;4.07;2.27;;;9.10;99.90;;;;;;7390189;19;20138;-81
2023/04/14 02:13:55;;;;;;;6.40;2.90;;;9.10;99.90;;;;;;7388340;19;20160;-82
2023/04/14 02:16:23;;;;;;;8.27;2.80;;;9.10;99.90;;;;;;7381341;19;20130;-83
2023/04/14 02:18:49;;;;;;;6.73;2.93;;;9.10;99.90;;;;;;7392202;19;20139;-82
2023/04/14 02:21:17;;;;;;;4.50;2.10;;;9.10;99.90;;;;;;7382010;19;20159;-82
2023/04/14 02:23:43;;;;;;;4.03;2.40;;;9.10;99.90;;;;;;7390078;19;20615;-82
2023/04/14 02:26:15;;;;;;;4.60;2.57;;;8.50;99.90;;;;;;7387462;19;20552;-83
2023/04/14 02:28:48;;;;;;;3.57;2.27;;;8.40;99.90;;;;;;7391317;19;20145;-82
2023/04/14 02:31:20;;;;;;;5.57;3.00;;;8.30;99.90;;;;;;7390718;19;20159;-82
2023/04/14 02:33:51;;;;;;;4.57;2.20;;;8.50;99.90;;;;;;7389369;19;20142;-83
2023/04/14 02:36:21;;;;;;;4.70;2.37;;;8.60;99.90;;;;;;7387583;19;20146;-82
2023/04/14 02:39:00;;;;;;;5.27;2.63;;;8.70;99.90;;;;;;7389820;19;21769;-83
2023/04/14 02:41:28;;;;;;;4.87;2.30;;;8.70;99.90;;;;;;7387453;19;20776;-82
2023/04/14 02:44:06;;;;;;;4.23;2.30;;;8.60;99.90;;;;;;7387676;19;20142;-82
2023/04/14 02:46:36;;;;;;;4.27;2.40;;;8.70;99.90;;;;;;7390674;19;20542;-82
2023/04/14 02:49:04;;;;;;;8.47;2.90;;;8.60;99.90;;;;;;7389629;19;20155;-83
2023/04/14 02:51:34;;;;;;;3.17;2.20;;;8.40;99.90;;;;;;7388754;19;20263;-83
2023/04/14 02:54:03;;;;;;;6.97;2.87;;;8.40;99.90;;;;;;7389279;19;20372;-83
2023/04/14 02:56:29;;;;;;;5.10;3.00;;;8.50;99.90;;;;;;7386752;19;20138;-82
2023/04/14 02:58:56;;;;;;;7.30;2.63;;;8.60;99.90;;;;;;7388356;19;20160;-83
2023/04/14 03:01:23;;;;;;;6.10;2.30;;;8.20;99.90;;;;;;7389219;19;20798;-82
2023/04/14 03:03:52;;;;;;;4.93;2.60;;;8.30;99.90;;;;;;7388401;19;20146;-83
2023/04/14 03:06:17;;;;;;;4.23;2.67;;;8.20;99.90;;;;;;7388792;19;20688;-82
2023/04/14 03:08:46;;;;;;;4.47;2.30;;;8.20;99.90;;;;;;7385004;19;20172;-84
2023/04/14 03:11:13;;;;;;;5.17;2.73;;;8.30;99.90;;;;;;7384710;19;20151;-82
2023/04/14 03:13:40;;;;;;;4.43;2.00;;;8.50;99.90;;;;;;7387402;19;20627;-83
2023/04/14 03:16:09;;;;;;;4.57;1.90;;;8.50;99.90;;;;;;7387126;19;20159;-83
2023/04/14 03:18:36;;;;;;;5.30;2.67;;;8.70;99.90;;;;;;7389881;19;20135;-82
2023/04/14 03:21:03;;;;;;;4.27;2.70;;;8.70;99.90;;;;;;7388609;19;20145;-82
2023/04/14 03:23:30;;;;;;;6.03;2.90;;;8.80;99.90;;;;;;7387523;19;20588;-83
2023/04/14 03:25:58;;;;;;;5.07;2.37;;;8.70;99.90;;;;;;7389303;19;20146;-83
2023/04/14 03:28:29;;;;;;;3.33;1.90;;;8.60;99.90;;;;;;7389038;19;20142;-82
2023/04/14 03:30:56;;;;;;;5.00;2.03;;;8.70;99.90;;;;;;7387970;19;20955;-84
2023/04/14 03:33:27;;;;;;;4.40;1.60;;;8.70;99.90;;;;;;7386817;19;20131;-82
2023/04/14 03:35:56;;;;;;;3.30;1.70;;;8.60;99.90;;;;;;7390030;19;20150;-83
2023/04/14 03:38:25;;;;;;;3.87;1.50;;;8.60;99.90;;;;;;7385607;19;20162;-83
2023/04/14 03:40:52;;;;;;;7.00;2.33;;;8.70;99.90;;;;;;7389803;19;20222;-83
2023/04/14 03:43:21;;;;;;;5.53;1.53;;;8.70;99.90;;;;;;7384306;19;20175;-83
2023/04/14 03:45:48;;;;;;;5.50;1.73;;;8.60;99.90;;;;;;7387419;19;20627;-81
2023/04/14 03:48:17;;;;;;;2.80;1.40;;;8.50;99.90;;;;;;7387329;19;20147;-83
2023/04/14 03:50:45;;;;;;;6.97;1.97;;;8.60;99.90;;;;;;7389547;19;20202;-82
2023/04/14 03:53:15;;;;;;;5.27;1.60;;;8.50;99.90;;;;;;7387356;19;20127;-82
2023/04/14 03:55:44;;;;;;;4.07;1.70;;;8.60;99.90;;;;;;7390422;19;20627;-81
2023/04/14 03:58:12;;;;;;;3.10;1.37;;;8.70;99.90;;;;;;7389995;19;20142;-82
2023/04/14 04:00:40;;;;;;;8.20;1.77;;;8.60;99.90;;;;;;7391626;19;20154;-82
2023/04/14 04:03:06;;;;;;;3.43;1.60;;;8.60;99.90;;;;;;7394204;19;20131;-83
2023/04/14 04:05:33;;;;;;;6.03;1.90;;;8.60;99.90;;;;;;7396610;19;20181;-83
2023/04/14 04:08:03;;;;;;;3.73;1.43;;;8.60;99.90;;;;;;7397176;19;20180;-83
2023/04/14 04:10:32;;;;;;;4.97;1.60;;;8.60;99.90;;;;;;7393375;19;20152;-83
2023/04/14 04:13:01;;;;;;;3.77;2.07;;;8.60;99.90;;;;;;7391168;19;20171;-82
2023/04/14 04:15:31;;;;;;;4.03;1.50;;;8.60;99.90;;;;;;7393079;19;20147;-83
2023/04/14 04:17:58;;;;;;;4.57;1.50;;;8.60;99.90;;;;;;7395313;19;20142;-83
2023/04/14 04:20:25;;;;;;;5.83;1.73;;;8.20;99.90;;;;;;7395433;19;20134;-83
2023/04/14 04:22:54;;;;;;;5.13;1.67;;;8.20;99.90;;;;;;7397263;19;20134;-82
2023/04/14 04:25:20;;;;;;;5.47;1.73;;;8.20;99.90;;;;;;7396354;19;20146;-82
2023/04/14 04:27:46;;;;;;;4.87;1.70;;;8.30;99.90;;;;;;7393553;19;20149;-83
2023/04/14 04:30:13;;;;;;;3.37;1.80;;;8.30;99.90;;;;;;7394269;19;20134;-81
2023/04/14 04:32:39;;;;;;;5.47;1.77;;;8.00;99.90;;;;;;7393007;19;20131;-84
2023/04/14 04:35:06;;;;;;;4.80;1.93;;;7.80;99.90;;;;;;7393151;19;20473;-82
2023/04/14 04:37:33;;;;;;;4.53;1.57;;;7.40;99.90;;;;;;7395634;19;20170;-82
2023/04/14 04:39:59;;;;;;;3.27;1.53;;;7.60;99.90;;;;;;7392342;19;20146;-84
2023/04/14 04:42:25;;;;;;;6.87;1.60;;;7.90;99.90;;;;;;7395577;19;20137;-83
2023/04/14 04:44:51;;;;;;;4.13;1.50;;;7.70;99.90;;;;;;7393563;19;20459;-83
2023/04/14 04:47:18;;;;;;;3.80;1.40;;;8.00;99.90;;;;;;7393240;19;20139;-84
2023/04/14 04:49:46;;;;;;;4.77;1.80;;;7.60;99.90;;;;;;7393650;19;20131;-83
2023/04/14 04:52:12;;;;;;;3.37;1.70;;;7.50;99.90;;;;;;7389372;19;20729;-84
2023/04/14 04:54:38;;;;;;;4.57;1.60;;;7.30;99.90;;;;;;7392054;19;20210;-84
2023/04/14 04:57:04;;;;;;;6.13;2.17;;;7.30;99.90;;;;;;7396013;19;20489;-84
2023/04/14 04:59:29;;;;;;;5.47;1.90;;;7.40;99.90;;;;;;7393744;19;20146;-85
2023/04/14 05:01:55;;;;;;;5.17;2.00;;;7.40;99.90;;;;;;7392637;19;20143;-84
2023/04/14 05:04:21;;;;;;;4.20;1.83;;;7.30;99.90;;;;;;7391438;19;20153;-84
2023/04/14 05:06:47;;;;;;;5.33;1.97;;;7.60;99.90;;;;;;7392770;19;20131;-84
2023/04/14 05:09:15;;;;;;;4.43;2.17;;;7.80;99.90;;;;;;7393139;19;20455;-84
2023/04/14 05:11:41;;;;;;;4.93;1.93;;;7.50;99.90;;;;;;7392478;19;20150;-82
2023/04/14 05:14:07;;;;;;;5.27;1.73;;;7.70;99.90;;;;;;7390717;19;20444;-82
2023/04/14 05:16:32;;;;;;;5.87;2.47;;;7.80;99.90;;;;;;7393961;19;20131;-82
2023/04/14 05:18:59;;;;;;;5.07;2.90;;;7.90;99.90;;;;;;7396917;19;20722;-83
2023/04/14 05:21:25;;;;;;;9.50;3.13;;;8.10;99.90;;;;;;7396431;19;20151;-83
2023/04/14 05:23:51;;;;;;;7.63;2.07;;;8.20;99.90;;;;;;7394714;19;20131;-83
2023/04/14 05:26:17;;;;;;;5.60;2.20;;;8.30;99.90;;;;;;7395432;19;20126;-83
2023/04/14 05:28:43;;;;;;;4.30;2.40;;;8.30;99.90;;;;;;7392495;19;20634;-82
2023/04/14 05:31:09;;;;;;;3.90;1.90;;;8.20;99.90;;;;;;7396253;19;20135;-82
2023/04/14 05:33:35;;;;;;;5.43;2.37;;;8.10;99.90;;;;;;7398012;19;20154;-82
2023/04/14 05:36:01;;;;;;;4.17;2.30;;;8.10;99.90;;;;;;7397584;19;20139;-82
2023/04/14 05:38:28;;;;;;;6.43;2.50;;;8.10;99.90;;;;;;7400767;19;20155;-81
2023/04/14 05:40:54;;;;;;;5.60;2.30;;;8.20;99.90;;;;;;7404823;19;20155;-80
2023/04/14 05:43:20;;;;;;;5.27;3.07;;;8.30;99.90;;;;;;7397738;19;20138;-81
2023/04/14 05:45:46;;;;;;;5.43;2.90;;;8.40;99.90;;;;;;7400816;19;20619;-81
2023/04/14 05:48:15;;;;;;;4.57;2.60;;;8.40;99.90;;;;;;7399431;19;20142;-80
2023/04/14 05:50:41;;;;;;;4.50;2.60;;;8.50;99.90;;;;;;7394001;19;20627;-80
2023/04/14 05:53:07;;;;;;;6.37;3.20;;;8.50;99.90;;;;;;7389512;19;20126;-82
2023/04/14 05:55:33;;;;;;;5.50;2.67;;;8.60;99.90;;;;;;7386814;19;20127;-82
2023/04/14 05:57:59;;;;;;;6.87;3.10;;;8.50;99.90;;;;;;7393282;19;20137;-81
2023/04/14 06:00:24;;;;;;;9.40;4.27;;;8.40;99.90;;;;;;7392157;19;20138;-81
2023/04/14 06:02:53;;;;;;;4.20;2.87;;;8.50;99.90;;;;;;7394697;19;20140;-82
2023/04/14 06:05:19;;;;;;;7.47;2.90;;;8.50;99.90;;;;;;7399107;19;20134;-81
2023/04/14 06:07:45;;;;;;;4.90;2.87;;;8.50;99.90;;;;;;7395361;19;20162;-81
2023/04/14 06:10:11;;;;;;;5.33;2.80;;;8.50;99.90;;;;;;7398778;19;20145;-81
2023/04/14 06:12:37;;;;;;;5.33;2.43;;;8.60;99.90;;;;;;7397168;19;20154;-81
2023/04/14 06:15:04;;;;;;;3.80;2.40;;;8.60;99.90;;;;;;7398996;19;20263;-81
2023/04/14 06:17:31;;;;;;;5.33;2.83;;;8.60;99.90;;;;;;7400198;19;20155;-81
2023/04/14 06:19:57;;;;;;;7.93;2.90;;;8.70;99.90;;;;;;7404653;19;20143;-82
2023/04/14 06:22:27;;;;;;;6.83;2.40;;;8.80;99.90;;;;;;7396693;19;20143;-82
2023/04/14 06:24:56;;;;;;;4.73;2.20;;;8.80;99.90;;;;;;7391576;19;20209;-82
2023/04/14 06:27:25;;;;;;;10.53;5.30;;;8.70;99.90;;;;;;7390689;19;20721;-82
2023/04/14 06:29:51;;;;;;;5.47;3.83;;;8.90;99.90;;;;;;7392281;19;20135;-81
2023/04/14 06:32:18;;;;;;;9.10;3.17;;;9.10;99.90;;;;;;7392252;19;20261;-82
2023/04/14 06:34:45;;;;;;;4.73;2.70;;;9.00;99.90;;;;;;7391240;19;20180;-80
2023/04/14 06:37:10;;;;;;;4.77;2.30;;;9.00;99.90;;;;;;7389776;19;20137;-82
2023/04/14 06:39:36;;;;;;;8.93;4.17;;;8.90;99.90;;;;;;7393073;19;20131;-82
2023/04/14 06:42:02;;;;;;;7.07;4.00;;;9.10;99.90;;;;;;7391971;19;20242;-80
2023/04/14 06:44:28;;;;;;;6.53;2.90;;;9.20;99.90;;;;;;7397230;19;20150;-81
2023/04/14 06:46:54;;;;;;;5.33;2.77;;;9.20;99.90;;;;;;7390494;19;20146;-81
2023/04/14 06:49:20;;;;;;;7.47;3.67;;;9.20;99.90;;;;;;7386710;19;20245;-81
2023/04/14 06:51:45;;;;;;;7.33;2.60;;;9.20;99.90;;;;;;7385702;19;20145;-81
2023/04/14 06:54:11;;;;;;;5.87;2.40;;;8.70;99.90;;;;;;7386796;19;20150;-81
2023/04/14 06:56:37;;;;;;;6.27;2.80;;;9.10;99.90;;;;;;7392097;19;20139;-81
2023/04/14 06:59:05;;;;;;;6.57;2.63;;;9.20;99.90;;;;;;7389774;19;20170;-80
2023/04/14 07:01:31;;;;;;;4.90;2.63;;;9.40;99.90;;;;;;7387610;19;20139;-81
2023/04/14 07:03:56;;;;;;;7.40;2.87;;;9.50;99.90;;;;;;7387303;19;20155;-81
2023/04/14 07:06:23;;;;;;;8.03;3.37;;;9.60;99.90;;;;;;7391158;19;20420;-82
2023/04/14 07:08:49;;;;;;;9.10;3.37;;;9.70;99.90;;;;;;7390633;19;20709;-81
2023/04/14 07:11:14;;;;;;;18.93;3.50;;;9.80;99.90;;;;;;7386738;19;20287;-82
2023/04/14 07:13:40;;;;;;;10.83;3.43;;;9.80;99.90;;;;;;7393508;19;20233;-82
2023/04/14 07:16:07;;;;;;;9.63;2.73;;;9.90;99.90;;;;;;7386521;19;20150;-81
2023/04/14 07:18:33;;;;;;;6.23;2.50;;;10.10;99.90;;;;;;7387936;19;20521;-79
2023/04/14 07:21:00;;;;;;;4.53;2.30;;;10.40;99.90;;;;;;7387869;19;20166;-81
2023/04/14 07:23:26;;;;;;;9.47;4.10;;;11.30;99.90;;;;;;7388160;19;20466;-80
2023/04/14 07:25:57;;;;;;;8.57;3.10;;;12.20;99.90;;;;;;7389092;19;20606;-80
2023/04/14 07:28:24;;;;;;;6.00;3.00;;;12.10;99.90;;;;;;7387329;19;20591;-82
2023/04/14 07:30:51;;;;;;;5.00;2.70;;;12.30;99.90;;;;;;7392417;19;20243;-80
2023/04/14 07:33:20;;;;;;;8.20;2.57;;;12.50;99.90;;;;;;7385169;19;20154;-81
2023/04/14 07:35:50;;;;;;;5.33;2.30;;;12.80;99.90;;;;;;7392658;19;20161;-81
2023/04/14 07:38:16;;;;;;;5.73;3.10;;;13.20;99.90;;;;;;7396630;19;20517;-81
2023/04/14 07:40:42;;;;;;;7.57;3.40;;;13.90;99.90;;;;;;7394155;19;20685;-81
2023/04/14 07:43:08;;;;;;;4.25;2.10;;;14.30;99.90;;;;;;7393902;19;20146;-83
2023/04/14 07:45:34;;;;;;;4.77;2.40;;;14.80;99.90;;;;;;7406754;19;20147;-82
2023/04/14 07:48:00;;;;;;;5.03;2.92;;;15.10;99.90;;;;;;7396621;19;20138;-83
2023/04/14 07:50:29;;;;;;;4.70;2.60;;;15.30;99.90;;;;;;7395921;19;20177;-84
2023/04/14 07:52:55;;;;;;;6.07;2.33;;;15.20;99.90;;;;;;7394394;19;20135;-83
2023/04/14 07:55:20;;;;;;;5.68;2.30;;;15.10;99.90;;;;;;7394687;19;20226;-83
2023/04/14 07:57:46;;;;;;;5.18;2.08;;;15.50;99.90;;;;;;7395288;19;20169;-84
2023/04/14 08:00:12;;;;;;;6.40;2.42;;;16.00;99.90;;;;;;7395966;19;20600;-83
2023/04/14 08:02:38;;;;;;;4.40;2.65;;;15.70;99.90;;;;;;7393661;19;20604;-83
2023/04/14 08:05:05;;;;;;;5.00;2.25;;;15.50;99.90;;;;;;7395349;19;20162;-81
2023/04/14 08:07:31;;;;;;;4.75;2.65;;;15.30;99.90;;;;;;7395995;19;20202;-83
2023/04/14 08:09:59;;;;;;;5.20;2.28;;;15.60;99.90;;;;;;7395335;19;20162;-83
2023/04/14 08:12:25;;;;;;;4.40;2.10;;;15.90;99.90;;;;;;7398886;19;20139;-83
2023/04/14 08:14:52;;;;;;;5.30;2.17;;;15.90;99.90;;;;;;7396154;19;20154;-84
2023/04/14 08:17:18;;;;;;;4.55;2.10;;;15.80;99.90;;;;;;7396084;19;20143;-83
2023/04/14 08:19:43;;;;;;;5.25;2.38;;;15.20;99.90;;;;;;7396836;19;20131;-85
2023/04/14 08:22:09;;;;;;;6.78;3.20;;;14.80;99.90;;;;;;7393805;19;20143;-83
2023/04/14 08:24:35;;;;;;;3.92;2.15;;;14.50;99.90;;;;;;7394016;19;20611;-84
2023/04/14 08:27:01;;;;;;;4.60;2.28;;;14.60;99.90;;;;;;7397440;19;20135;-84
2023/04/14 08:29:27;;;;;;;5.78;2.30;;;14.40;99.90;;;;;;7395184;19;20139;-83
2023/04/14 08:31:53;;;;;;;6.03;2.20;;;14.20;99.90;;;;;;7393821;19;20448;-85
2023/04/14 08:34:21;;;;;;;6.93;2.40;;;14.00;99.90;;;;;;7396320;19;20579;-85
2023/04/14 08:36:47;;;;;;;12.97;2.83;;;14.00;99.90;;;;;;7392175;19;20138;-83
2023/04/14 08:39:13;;;;;;;6.40;2.30;;;14.00;99.90;;;;;;7395622;19;20129;-84
2023/04/14 08:41:40;;;;;;;6.40;2.10;;;14.00;99.90;;;;;;7394593;19;20143;-84
2023/04/14 08:44:07;;;;;;;5.77;2.20;;;14.10;99.90;;;;;;7395700;19;20134;-82
2023/04/14 08:46:34;;;;;;;4.07;1.83;;;14.30;99.90;;;;;;7395563;19;20615;-83
2023/04/14 08:49:06;;;;;;;2.83;1.60;;;14.60;99.90;;;;;;7400063;19;20135;-83
2023/04/14 08:51:42;;;;;;;7.00;2.53;;;14.60;99.90;;;;;;7395431;19;20629;-84
2023/04/14 08:54:10;;;;;;;4.45;1.80;;;14.40;99.90;;;;;;7395055;19;20638;-83
2023/04/14 08:56:37;;;;;;;4.50;1.40;;;14.10;99.90;;;;;;7395148;19;20147;-82
2023/04/14 08:59:05;;;;;;;4.00;1.20;;;13.80;99.90;;;;;;7395464;19;20166;-84
2023/04/14 09:01:33;;;;;;;1.83;1.07;;;13.50;99.90;;;;;;7394941;19;20528;-85
2023/04/14 09:04:02;;;;;;;2.60;1.23;;;13.30;99.90;;;;;;7396149;19;20239;-85
2023/04/14 09:06:29;;;;;;;4.43;1.20;;;13.30;99.90;;;;;;7393918;19;20158;-85
2023/04/14 09:08:55;;;;;;;6.40;1.23;;;13.30;99.90;;;;;;7394982;19;20135;-84
2023/04/14 09:11:22;;;;;;;4.93;1.13;;;13.50;99.90;;;;;;7394459;19;20151;-84
2023/04/14 09:13:49;;;;;;;2.27;1.03;;;13.50;99.90;;;;;;7393639;19;20535;-83
2023/04/14 09:16:16;;;;;;;3.03;1.27;;;13.80;99.90;;;;;;7396357;19;20150;-83
2023/04/14 09:18:42;;;;;;;4.60;1.33;;;14.20;99.90;;;;;;7407681;19;20131;-85
2023/04/14 09:21:09;;;;;;;7.03;1.10;;;14.30;99.90;;;;;;7405874;19;20242;-86
2023/04/14 09:23:36;;;;;;;7.70;1.73;;;14.20;99.90;;;;;;7406766;19;20126;-85
2023/04/14 09:26:07;;;;;;;2.03;0.90;;;13.80;99.90;;;;;;7397778;19;20153;-84
2023/04/14 09:28:34;;;;;;;9.70;1.53;;;13.70;99.90;;;;;;7397643;19;20142;-84
2023/04/14 09:31:01;;;;;;;10.63;1.73;;;13.60;99.90;;;;;;7395348;19;20179;-86
2023/04/14 09:33:27;;;;;;;7.77;1.00;;;13.60;99.90;;;;;;7394076;19;20154;-84
2023/04/14 09:35:53;;;;;;;3.87;1.10;;;13.70;99.90;;;;;;7394765;19;20921;-83
2023/04/14 09:38:38;;;;;;;4.93;1.10;;;13.70;99.90;;;;;;7395881;19;20500;-83
2023/04/14 09:41:08;;;;;;;2.07;1.20;;;13.70;99.90;;;;;;7400236;19;20156;-85
2023/04/14 09:43:35;;;;;;;3.40;1.30;;;13.60;99.90;;;;;;7398925;19;20134;-84
2023/04/14 09:46:06;;;;;;;3.83;1.13;;;13.70;99.90;;;;;;7396139;19;20158;-85
2023/04/14 09:48:33;;;;;;;4.03;1.20;;;13.70;99.90;;;;;;7395854;19;20506;-86
2023/04/14 09:51:11;;;;;;;5.60;1.70;;;13.50;99.90;;;;;;7395189;19;20166;-84
2023/04/14 09:53:39;;;;;;;3.03;1.30;;;13.70;99.90;;;;;;7395381;19;20143;-84
2023/04/14 09:56:09;;;;;;;2.77;1.10;;;13.70;99.90;;;;;;7394183;19;20135;-84
2023/04/14 09:58:37;;;;;;;4.30;1.07;;;13.70;99.90;;;;;;7392350;19;20146;-84
2023/04/14 10:01:10;;;;;;;5.03;1.50;;;13.80;99.90;;;;;;7394142;19;20206;-84
2023/04/14 10:03:46;;;;;;;4.75;1.30;;;13.90;99.90;;;;;;7392650;19;20169;-83
2023/04/14 10:06:12;;;;;;;2.80;1.08;;;14.20;99.90;;;;;;7395428;19;20138;-84
2023/04/14 10:08:42;;;;;;;4.77;1.57;;;14.50;99.90;;;;;;7394439;19;20135;-85
2023/04/14 10:11:21;;;;;;;3.83;1.50;;;14.60;99.90;;;;;;7396196;19;20230;-83
2023/04/14 10:13:49;;;;;;;3.05;1.52;;;14.50;99.90;;;;;;7390873;19;20182;-83
2023/04/14 10:16:15;;;;;;;3.70;1.63;;;14.30;99.90;;;;;;7392232;19;20126;-84
2023/04/14 10:18:43;;;;;;;4.00;2.47;;;14.60;99.90;;;;;;7400846;19;20134;-84
2023/04/14 10:21:10;;;;;;;3.30;1.50;;;15.00;99.90;;;;;;7395420;19;20146;-82
2023/04/14 10:23:38;;;;;;;3.85;1.40;;;15.30;99.90;;;;;;7389531;19;20130;-83
2023/04/14 10:26:06;;;;;;;4.38;1.40;;;15.30;99.90;;;;;;7391814;19;20206;-83
2023/04/14 10:28:36;;;;;;;2.15;1.27;;;15.00;99.90;;;;;;7391181;19;20126;-84
2023/04/14 10:31:07;;;;;;;5.18;2.30;;;15.00;99.90;;;;;;7392202;19;20170;-84
2023/04/14 10:33:36;;;;;;;5.75;2.50;;;15.20;99.90;;;;;;7391507;19;20134;-84
2023/04/14 10:36:03;;;;;;;6.05;2.03;;;15.00;99.90;;;;;;7390619;19;20536;-85
2023/04/14 10:38:44;;;;;;;3.75;1.40;;;14.70;99.90;;;;;;7391667;19;20131;-85
2023/04/14 10:41:11;;;;;;;5.70;2.10;;;14.40;99.90;;;;;;7390523;19;20646;-84
2023/04/14 10:43:39;;;;;;;5.45;1.90;;;14.20;99.90;;;;;;7390664;19;20164;-85
2023/04/14 10:46:06;;;;;;;3.17;1.85;;;14.00;99.90;;;;;;7390710;19;20138;-84
2023/04/14 10:48:40;;;;;;;3.58;1.80;;;13.70;99.90;;;;;;7391391;19;20469;-84
2023/04/14 10:51:09;;;;;;;3.13;1.48;;;13.80;99.90;;;;;;7390505;19;20486;-82
2023/04/14 10:53:48;;;;;;;5.80;1.80;;;13.80;99.90;;;;;;7390525;19;20135;-83
2023/04/14 10:56:15;;;;;;;4.57;2.07;;;13.80;99.90;;;;;;7393675;19;20150;-84
2023/04/14 10:58:53;;;;;;;5.53;1.67;;;13.90;99.90;;;;;;7389198;19;20130;-83
2023/04/14 11:01:30;;;;;;;5.70;2.25;;;14.10;99.90;;;;;;7390425;19;20166;-82
2023/04/14 11:04:09;;;;;;;4.03;1.55;;;14.00;99.90;;;;;;7390065;19;20154;-85
2023/04/14 11:06:51;;;;;;;5.63;2.53;;;13.80;99.90;;;;;;7390303;19;20146;-84
2023/04/14 11:09:33;;;;;;;5.60;1.53;;;13.70;99.90;;;;;;7388445;19;20591;-86
2023/04/14 11:12:26;;;;;;;7.67;2.17;;;13.70;99.90;;;;;;7388242;19;20138;-85
2023/04/14 11:15:01;;;;;;;6.57;1.63;;;13.70;99.90;;;;;;7390889;19;20131;-84
2023/04/14 11:17:29;;;;;;;4.45;1.35;;;13.80;99.90;;;;;;7389027;19;20159;-83
2023/04/14 11:19:57;;;;;;;4.25;1.50;;;14.00;99.90;;;;;;7390267;19;20258;-82
2023/04/14 11:22:37;;;;;;;3.50;1.25;;;14.10;99.90;;;;;;7388722;19;20513;-83
2023/04/14 11:25:03;;;;;;;5.18;1.70;;;14.20;99.90;;;;;;7388251;19;20142;-81
2023/04/14 11:27:31;;;;;;;6.07;1.95;;;14.40;99.90;;;;;;7389547;19;20135;-84
2023/04/14 11:30:00;;;;;;;7.40;2.08;;;14.40;99.90;;;;;;7393509;19;20579;-84
2023/04/14 11:32:27;;;;;;;6.65;1.30;;;14.20;99.90;;;;;;7388301;19;20209;-84
2023/04/14 11:34:52;;;;;;;4.38;1.27;;;14.20;99.90;;;;;;7388676;19;20218;-82
2023/04/14 11:37:18;;;;;;;3.57;1.17;;;14.20;99.90;;;;;;7389224;19;20149;-82
2023/04/14 11:39:47;;;;;;;3.15;1.33;;;14.30;99.90;;;;;;7389418;19;20135;-83
2023/04/14 11:42:13;;;;;;;1.67;0.95;;;14.70;99.90;;;;;;7388288;19;20169;-82
2023/04/14 11:44:39;;;;;;;1.55;1.13;;;14.80;99.90;;;;;;7390205;19;20134;-82
2023/04/14 11:47:05;;;;;;;6.05;1.20;;;14.70;99.60;;;;;;7389012;19;20165;-82
2023/04/14 11:49:35;;;;;;;4.60;2.15;;;14.60;99.90;;;;;;7390728;19;20162;-82
2023/04/14 11:52:06;;;;;;;2.85;1.30;;;14.50;99.10;;;;;;7389717;19;20588;-80
2023/04/14 11:54:38;;;;;;;3.53;1.05;;;14.30;98.60;;;;;;7388354;19;20135;-82
2023/04/14 11:57:16;;;;;;;3.78;1.60;;;14.20;99.30;;;;;;7390967;19;20135;-83
2023/04/14 11:59:46;;;;;;;3.38;1.13;;;14.10;99.00;;;;;;7387546;19;20830;-82
2023/04/14 12:02:20;;;;;;;4.07;1.25;;;14.00;99.70;;;;;;7389169;19;20139;-82
2023/04/14 12:04:48;;;;;;;4.18;1.17;;;14.00;98.60;;;;;;7386497;19;20146;-82
2023/04/14 12:07:17;;;;;;;2.42;0.98;;;14.00;99.80;;;;;;7386591;19;20150;-81
2023/04/14 12:09:49;;;;;;;2.70;1.10;;;14.30;99.60;;;;;;7390096;19;20149;-83
2023/04/14 12:12:18;;;;;;;3.63;1.10;;;14.30;99.90;;;;;;7385138;19;20889;-83
2023/04/14 12:14:48;;;;;;;4.57;1.60;;;14.50;98.90;;;;;;7386997;19;20163;-83
2023/04/14 12:17:16;;;;;;;4.43;1.48;;;14.70;98.40;;;;;;7388297;19;20135;-82
2023/04/14 12:19:43;;;;;;;3.53;1.15;;;14.70;98.60;;;;;;7388341;19;20158;-84
2023/04/14 12:22:09;;;;;;;3.17;1.30;;;14.60;99.00;;;;;;7390615;19;20131;-83
2023/04/14 12:24:36;;;;;;;6.03;1.90;;;14.60;97.50;;;;;;7393899;19;20170;-83
2023/04/14 12:27:03;;;;;;;2.85;1.00;;;14.50;97.40;;;;;;7395075;19;20234;-84
2023/04/14 12:29:33;;;;;;;4.70;1.03;;;14.50;97.40;;;;;;7394295;19;20143;-85
2023/04/14 12:32:01;;;;;;;6.72;1.60;;;14.30;97.20;;;;;;7393687;19;20506;-84
2023/04/14 12:34:28;;;;;;;5.25;2.35;;;14.40;97.20;;;;;;7393718;19;20138;-83
2023/04/14 12:36:55;;;;;;;2.90;1.40;;;14.50;96.80;;;;;;7395494;19;20154;-82
2023/04/14 12:39:23;;;;;;;5.00;1.58;;;14.30;96.80;;;;;;7395091;19;20480;-82
2023/04/14 12:41:50;;;;;;;2.67;1.00;;;14.30;96.40;;;;;;7389446;19;20154;-84
2023/04/14 12:44:19;;;;;;;2.53;1.00;;;14.60;95.40;;;;;;7392071;19;20130;-82
2023/04/14 12:46:52;;;;;;;1.67;1.20;;;14.70;95.30;;;;;;7394181;19;20143;-84
2023/04/14 12:49:37;;;;;;;4.70;1.85;;;15.20;94.10;;;;;;7392331;19;20157;-84
2023/04/14 12:52:06;;;;;;;2.63;1.40;;;15.20;92.00;;;;;;7391235;19;20587;-81
2023/04/14 12:54:53;;;;;;;3.45;1.05;;;15.20;91.20;;;;;;7393092;19;20521;-84
2023/04/14 12:57:22;;;;;;;1.75;0.80;;;15.40;93.10;;;;;;7393832;19;20163;-84
2023/04/14 12:59:49;;;;;;;6.90;0.90;;;15.60;93.80;;;;;;7392766;19;20162;-84